0PN3 weather

Public forecast

Using degrees Fahrenheit for public forecast. Weather courtesy of forecast.io.

Closest aviation weather report (METAR) to Wyeth-Ayerst Nr Heliport

Closest report is Heritage Field, 6.5 nm (12.0 km) NW. Retrieved 2020/08/14 11:54 UTC (1 hour ago):

KPTW 141154Z AUTO 04006KT 5SM BR SCT024 SCT031 22/21 A3005 RMK AO2 SLP171 T02220206 10222 20206 50002

Closest aviation forecast (TAF) to Wyeth-Ayerst Nr Heliport

Closest forecast is Philadelphia International Airport, 20.0 nm (37.1 km) SSE. Retrieved 2020/08/14 12:28 UTC (28 minutes ago):

TAF KPHL 141120Z 1412/1518 05006KT P6SM BKN012 TEMPO 1412/1413 4SM BR BKN008 OVC012 FM141300 05008KT P6SM -SHRA BKN020 FM141700 06010KT P6SM BKN035 FM142000 06010KT P6SM SCT045 FM150600 03008KT P6SM SCT250 FM151300 06010KT P6SM SCT250